Time;durP1;ratioP1;P1;durP2;ratioP2;P2;SDS_P1;SDS_P2;PMS_P1;PMS_P2;Temp;Humidity;BMP_temperature;BMP_pressure;BME280_temperature;BME280_humidity;BME280_pressure;Samples;Min_cycle;Max_cycle;Signal;HPM_P1;HPM_P2
2021/05/24 00:02:23;;;;;;;5.70;5.18;;;;;;;17.14;69.48;101099.75;4988376;28;101862;-66
2021/05/24 00:04:53;;;;;;;5.47;4.45;;;;;;;17.13;69.51;101095.38;4986118;28;102120;-68
2021/05/24 00:07:20;;;;;;;5.20;4.70;;;;;;;17.13;69.93;101089.06;4986167;28;101650;-67
2021/05/24 00:09:51;;;;;;;5.47;4.97;;;;;;;17.14;69.78;101085.19;4967144;28;101859;-67
2021/05/24 00:12:25;;;;;;;5.03;4.63;;;;;;;17.13;70.05;101072.56;4987548;28;102193;-67
2021/05/24 00:14:58;;;;;;;5.00;4.60;;;;;;;17.13;69.70;101073.38;4985540;28;104147;-67
2021/05/24 00:17:28;;;;;;;6.07;5.10;;;;;;;17.14;69.42;101080.50;4987720;28;101668;-67
2021/05/24 00:19:58;;;;;;;5.22;4.72;;;;;;;17.13;69.41;101086.31;4986818;28;101670;-68
2021/05/24 00:22:25;;;;;;;5.68;5.18;;;;;;;17.13;69.54;101100.06;4986852;28;102236;-67
2021/05/24 00:24:56;;;;;;;5.85;5.20;;;;;;;17.14;70.00;101085.19;4986122;28;104278;-67
2021/05/24 00:27:26;;;;;;;5.68;5.18;;;;;;;17.12;69.39;101087.44;4970272;28;101857;-67
2021/05/24 00:29:55;;;;;;;5.47;5.07;;;;;;;17.12;69.67;101085.50;4986203;28;101591;-67
2021/05/24 00:32:23;;;;;;;5.97;5.47;;;;;;;17.11;70.24;101081.13;4987813;28;102015;-67
2021/05/24 00:34:51;;;;;;;5.40;4.97;;;;;;;17.10;70.47;101074.00;4986221;28;104053;-67
2021/05/24 00:37:19;;;;;;;6.32;5.72;;;;;;;17.09;70.17;101077.03;4986984;28;101598;-67
2021/05/24 00:39:46;;;;;;;5.85;5.35;;;;;;;17.09;70.88;101077.03;4986688;28;101568;-68
2021/05/24 00:42:17;;;;;;;6.00;5.50;;;;;;;17.08;70.48;101087.22;4987809;28;102175;-66
2021/05/24 00:44:44;;;;;;;5.85;5.25;;;;;;;17.08;70.83;101076.22;4985200;28;104028;-67
2021/05/24 00:47:11;;;;;;;7.50;5.75;;;;;;;17.08;70.78;101083.66;4987057;28;101567;-67
2021/05/24 00:49:38;;;;;;;6.28;5.78;;;;;;;17.07;71.01;101082.84;4986730;28;101594;-66
2021/05/24 00:52:06;;;;;;;8.75;6.07;;;;;;;17.09;71.00;101099.84;4987224;28;102183;-66
2021/05/24 00:54:33;;;;;;;6.63;5.93;;;;;;;17.10;70.88;101090.50;4984649;28;104067;-65
2021/05/24 00:57:05;;;;;;;5.55;5.10;;;;;;;17.10;70.81;101100.69;4986611;28;101520;-67
2021/05/24 00:59:33;;;;;;;6.50;5.70;;;;;;;17.09;70.59;101104.53;4985156;28;101857;-66
2021/05/24 01:02:05;;;;;;;6.53;5.90;;;;;;;17.10;70.86;101097.94;4987011;28;101547;-68
2021/05/24 01:04:35;;;;;;;6.47;5.93;;;;;;;17.09;70.37;101099.84;4985405;28;104061;-69
2021/05/24 01:07:06;;;;;;;7.30;5.72;;;;;;;17.11;70.14;101096.81;4986783;28;101787;-67
2021/05/24 01:09:34;;;;;;;7.32;5.88;;;;;;;17.09;70.54;101088.84;4985956;28;101861;-67
2021/05/24 01:12:01;;;;;;;6.20;5.60;;;;;;;17.08;70.95;101078.16;4987339;28;102054;-68
2021/05/24 01:14:29;;;;;;;6.85;5.85;;;;;;;17.08;71.41;101081.72;4986337;28;103342;-67
2021/05/24 01:16:56;;;;;;;6.25;5.65;;;;;;;17.07;70.89;101069.09;4986204;28;102221;-69
2021/05/24 01:19:27;;;;;;;7.53;6.45;;;;;;;17.07;71.13;101063.59;4985021;28;101886;-67
2021/05/24 01:22:00;;;;;;;6.80;6.03;;;;;;;17.08;70.97;101053.41;4987075;28;102127;-67
2021/05/24 01:24:27;;;;;;;7.07;6.25;;;;;;;17.07;71.00;101060.03;4985693;28;103992;-68
2021/05/24 01:26:54;;;;;;;6.70;6.10;;;;;;;17.07;71.03;101051.81;4986608;28;101556;-67
2021/05/24 01:29:21;;;;;;;6.45;5.85;;;;;;;17.07;71.26;101054.53;4985757;28;101793;-67
2021/05/24 01:31:50;;;;;;;8.20;6.50;;;;;;;17.08;71.78;101053.41;4986018;28;102219;-67
2021/05/24 01:34:17;;;;;;;7.68;6.75;;;;;;;17.07;71.67;101049.06;4983909;28;104054;-67
2021/05/24 01:36:44;;;;;;;6.68;6.05;;;;;;;17.07;71.07;101047.09;4986383;28;101575;-67
2021/05/24 01:39:12;;;;;;;6.93;6.30;;;;;;;17.07;71.59;101043.56;4985523;28;102113;-67
2021/05/24 01:41:40;;;;;;;7.75;6.50;;;;;;;17.05;71.81;101039.16;4985848;28;102294;-68
2021/05/24 01:44:07;;;;;;;7.10;6.10;;;;;;;17.04;71.87;101039.47;4985274;28;104064;-67
2021/05/24 01:46:34;;;;;;;7.03;6.32;;;;;;;17.04;72.42;101029.28;4985300;28;101714;-67
2021/05/24 01:49:01;;;;;;;6.88;6.25;;;;;;;17.05;72.03;101038.34;4985913;28;101756;-69
2021/05/24 01:51:29;;;;;;;7.55;6.80;;;;;;;17.05;71.96;101039.16;4985848;28;102183;-67
2021/05/24 01:53:56;;;;;;;6.80;6.20;;;;;;;17.07;71.80;101040.81;4967676;28;103993;-67
2021/05/24 01:56:23;;;;;;;8.98;6.70;;;;;;;17.07;71.95;101051.81;4985546;28;101705;-68
2021/05/24 01:58:50;;;;;;;6.57;6.07;;;;;;;17.05;71.88;101044.66;4985623;28;101727;-66
2021/05/24 02:01:21;;;;;;;6.68;6.18;;;;;;;17.05;71.88;101041.91;4987076;28;102116;-68
2021/05/24 02:03:54;;;;;;;6.53;5.93;;;;;;;17.08;71.39;101045.16;4985410;28;104242;-66
2021/05/24 02:06:23;;;;;;;6.93;6.13;;;;;;;17.07;71.66;101049.84;4987701;28;101554;-66
2021/05/24 02:08:58;;;;;;;8.68;6.28;;;;;;;17.07;71.43;101047.09;4988988;28;101631;-67
2021/05/24 02:11:28;;;;;;;6.68;6.07;;;;;;;17.08;71.29;101053.41;4991033;28;101447;-66
2021/05/24 02:13:55;;;;;;;6.50;5.95;;;;;;;17.09;70.86;101049.53;4968825;28;102711;-67
2021/05/24 02:16:34;;;;;;;6.35;5.72;;;;;;;17.08;71.27;101048.72;4988955;28;101165;-66
2021/05/24 02:19:03;;;;;;;6.47;5.93;;;;;;;17.08;70.93;101053.41;4983314;28;101802;-67
2021/05/24 02:21:30;;;;;;;6.53;5.93;;;;;;;17.08;70.68;101053.41;4986813;28;101524;-67
2021/05/24 02:24:01;;;;;;;7.07;6.38;;;;;;;17.08;70.65;101053.41;4985123;28;104073;-67
2021/05/24 02:26:33;;;;;;;6.53;6.03;;;;;;;17.09;70.91;101066.84;4986282;28;101737;-68
2021/05/24 02:29:00;;;;;;;6.32;5.82;;;;;;;17.10;70.77;101073.19;4985655;28;101740;-67
2021/05/24 02:31:27;;;;;;;6.47;5.82;;;;;;;17.08;70.72;101065.22;4986388;28;102194;-67
2021/05/24 02:33:55;;;;;;;6.97;5.63;;;;;;;17.08;70.82;101067.16;4984821;28;103205;-67
2021/05/24 02:36:24;;;;;;;6.40;5.85;;;;;;;17.08;70.57;101059.72;4984405;28;101596;-68
2021/05/24 02:38:51;;;;;;;6.35;5.85;;;;;;;17.08;70.67;101078.97;4983350;28;101984;-67
2021/05/24 02:41:19;;;;;;;5.95;5.45;;;;;;;17.09;70.56;101082.53;4968694;28;102214;-67
2021/05/24 02:43:53;;;;;;;7.35;6.10;;;;;;;17.08;70.40;101073.47;4984623;28;103913;-68
2021/05/24 02:46:19;;;;;;;6.68;6.15;;;;;;;17.07;70.23;101085.59;4985490;28;101751;-67
2021/05/24 02:48:46;;;;;;;6.53;5.85;;;;;;;17.09;70.47;101093.53;4988939;28;101606;-67
2021/05/24 02:51:16;;;;;;;6.85;6.25;;;;;;;17.09;70.61;101088.03;4988835;28;102089;-67
2021/05/24 02:53:42;;;;;;;6.18;5.72;;;;;;;17.09;70.37;101099.03;4987890;28;103907;-67
2021/05/24 02:56:12;;;;;;;8.63;5.53;;;;;;;17.09;70.28;101110.03;4988875;28;101800;-69
2021/05/24 02:58:41;;;;;;;5.80;5.40;;;;;;;17.10;70.08;101122.69;4988284;28;101617;-69
2021/05/24 03:01:11;;;;;;;6.18;5.43;;;;;;;17.09;70.37;101121.84;4988885;28;102098;-67
2021/05/24 03:03:42;;;;;;;5.93;5.43;;;;;;;17.09;70.16;101118.28;4986586;28;102831;-66
2021/05/24 03:06:09;;;;;;;6.18;5.70;;;;;;;17.08;70.45;101120.22;4988355;28;101887;-67
2021/05/24 03:08:36;;;;;;;5.88;5.38;;;;;;;17.10;70.11;101122.69;4987570;28;101854;-67
2021/05/24 03:11:06;;;;;;;5.90;5.40;;;;;;;17.08;70.03;101114.72;4988928;28;101837;-69
2021/05/24 03:13:33;;;;;;;6.20;5.70;;;;;;;17.08;70.55;101113.91;4987476;28;104156;-67
2021/05/24 03:16:03;;;;;;;6.03;5.53;;;;;;;17.08;70.42;101113.91;4988101;28;101564;-67
2021/05/24 03:18:34;;;;;;;6.50;6.00;;;;;;;17.09;70.02;101115.53;4987841;28;101721;-67
2021/05/24 03:21:04;;;;;;;6.57;5.97;;;;;;;17.08;70.41;101108.41;4988531;28;102191;-68
2021/05/24 03:23:31;;;;;;;6.35;5.85;;;;;;;17.07;70.00;101106.78;4986312;28;101846;-67
2021/05/24 03:25:58;;;;;;;6.13;5.63;;;;;;;17.09;70.12;101107.28;4986994;28;101755;-68
2021/05/24 03:28:25;;;;;;;5.85;5.35;;;;;;;17.08;70.36;101108.41;4987568;28;101697;-67
2021/05/24 03:30:52;;;;;;;6.28;5.78;;;;;;;17.09;70.01;101110.03;4988344;28;102164;-67
2021/05/24 03:33:19;;;;;;;6.43;5.85;;;;;;;17.09;70.25;101118.28;4986996;28;103885;-66
2021/05/24 03:35:47;;;;;;;6.03;5.53;;;;;;;17.09;70.34;101121.03;4987781;28;101836;-66
2021/05/24 03:38:20;;;;;;;5.95;5.55;;;;;;;17.09;70.07;101119.09;4987456;28;101594;-67
2021/05/24 03:40:49;;;;;;;6.30;5.80;;;;;;;17.10;70.25;101117.19;4988677;28;102149;-68
2021/05/24 03:43:20;;;;;;;5.85;5.35;;;;;;;17.10;70.51;101107.00;4987247;28;103912;-69
2021/05/24 03:45:47;;;;;;;6.13;5.63;;;;;;;17.11;69.96;101107.81;4987760;28;101824;-67
2021/05/24 03:48:17;;;;;;;6.20;5.60;;;;;;;17.09;70.23;101099.84;4969735;28;101809;-67
2021/05/24 03:51:01;;;;;;;6.05;5.55;;;;;;;17.10;69.99;101095.19;4988389;28;102031;-67
2021/05/24 03:53:28;;;;;;;6.00;5.55;;;;;;;17.11;69.99;101124.31;4986562;28;104005;-67
2021/05/24 03:55:55;;;;;;;6.32;5.82;;;;;;;17.11;70.29;101129.81;4987362;28;101681;-67
2021/05/24 03:58:21;;;;;;;6.05;5.65;;;;;;;17.11;70.21;101140.81;4987048;28;101765;-67
2021/05/24 04:00:49;;;;;;;6.00;5.50;;;;;;;17.11;70.30;101140.81;4987861;28;102181;-67
2021/05/24 04:03:15;;;;;;;6.10;5.60;;;;;;;17.09;69.90;101121.03;4985482;28;101864;-68
2021/05/24 04:05:44;;;;;;;6.20;5.70;;;;;;;17.10;70.31;101108.94;4987597;28;101561;-67
2021/05/24 04:08:12;;;;;;;6.70;6.10;;;;;;;17.09;69.91;101110.03;4969390;28;101844;-67
2021/05/24 04:10:57;;;;;;;5.88;5.45;;;;;;;17.11;70.28;101146.31;4987710;28;101752;-68
2021/05/24 04:13:28;;;;;;;6.75;6.20;;;;;;;17.11;69.99;101157.31;4986344;28;103983;-68
2021/05/24 04:15:57;;;;;;;6.65;6.10;;;;;;;17.10;70.15;101144.69;4987489;28;101869;-67
2021/05/24 04:18:28;;;;;;;6.00;5.47;;;;;;;17.09;70.00;101132.03;4986117;28;101759;-67
2021/05/24 04:21:08;;;;;;;6.07;5.65;;;;;;;17.11;69.72;101149.88;4985433;28;101873;-67
2021/05/24 04:23:36;;;;;;;6.20;5.70;;;;;;;17.11;69.62;101166.38;4986139;28;104040;-67
2021/05/24 04:26:03;;;;;;;5.68;5.18;;;;;;;17.11;70.15;101166.38;4986721;28;101684;-68
2021/05/24 04:28:29;;;;;;;5.57;5.10;;;;;;;17.12;69.60;101175.44;4986384;28;101759;-67
2021/05/24 04:30:57;;;;;;;5.15;4.75;;;;;;;17.11;69.79;101196.63;4987468;28;102239;-68
2021/05/24 04:33:24;;;;;;;5.93;5.43;;;;;;;17.12;69.76;101208.44;4986115;28;103910;-67
2021/05/24 04:35:51;;;;;;;5.97;5.47;;;;;;;17.11;70.02;101206.81;4987382;28;101688;-68
2021/05/24 04:38:17;;;;;;;5.53;5.13;;;;;;;17.11;69.60;101201.31;4986410;28;101552;-66
2021/05/24 04:40:46;;;;;;;5.72;5.30;;;;;;;17.11;69.78;101204.06;4987517;28;102157;-67
2021/05/24 04:43:14;;;;;;;5.47;5.07;;;;;;;17.11;69.81;101226.06;4968398;28;103883;-67
2021/05/24 04:45:42;;;;;;;5.50;5.10;;;;;;;17.10;70.25;101224.44;4986683;28;101713;-68
2021/05/24 04:48:12;;;;;;;5.95;4.95;;;;;;;17.01;72.38;101227.06;4986084;28;101599;-67
2021/05/24 04:50:39;;;;;;;5.80;5.30;;;;;;;16.98;72.27;101220.22;4986614;28;102049;-67
2021/05/24 04:53:06;;;;;;;6.90;5.20;;;;;;;16.95;73.61;101223.59;4985618;28;104059;-68
2021/05/24 04:55:36;;;;;;;8.25;5.43;;;;;;;16.95;73.08;101220.84;4986775;28;101567;-67
2021/05/24 04:58:06;;;;;;;5.80;5.30;;;;;;;16.94;73.95;101219.19;4980825;28;101742;-67
2021/05/24 05:00:33;;;;;;;6.72;5.57;;;;;;;16.95;73.71;101220.84;4982211;28;102137;-67
2021/05/24 05:03:00;;;;;;;6.90;4.65;;;;;;;16.95;73.46;101231.84;4979763;28;103875;-67
2021/05/24 05:05:26;;;;;;;6.30;4.10;;;;;;;16.94;74.50;101229.38;4981324;28;102198;-67
2021/05/24 05:07:53;;;;;;;7.13;4.80;;;;;;;16.93;74.33;101249.75;4980423;28;101690;-67
2021/05/24 05:10:19;;;;;;;6.47;4.47;;;;;;;16.97;74.19;101251.59;4964883;28;102141;-67
2021/05/24 05:12:46;;;;;;;7.82;4.65;;;;;;;17.00;73.83;101261.97;4979534;28;104041;-67
2021/05/24 05:15:14;;;;;;;6.82;5.10;;;;;;;17.03;73.34;101255.06;4981401;28;101647;-67
2021/05/24 05:17:40;;;;;;;9.82;4.80;;;;;;;17.02;73.35;101232.25;4981098;28;101789;-72
2021/05/24 05:20:08;;;;;;;6.50;5.50;;;;;;;17.03;72.66;101222.88;4982116;28;102057;-68
2021/05/24 05:22:34;;;;;;;5.68;5.18;;;;;;;17.05;72.33;101225.31;4980108;28;103890;-67
2021/05/24 05:25:00;;;;;;;5.43;5.03;;;;;;;17.05;71.69;101220.63;4981392;28;101583;-67
2021/05/24 05:27:28;;;;;;;5.70;5.20;;;;;;;17.05;71.83;101220.63;4980805;28;101580;-67
2021/05/24 05:29:55;;;;;;;6.00;5.50;;;;;;;17.07;71.51;101222.28;4982143;28;102173;-67
2021/05/24 05:32:22;;;;;;;5.85;5.35;;;;;;;17.07;71.43;101217.59;4980538;28;104025;-67
2021/05/24 05:34:49;;;;;;;6.32;5.82;;;;;;;17.08;71.25;101223.91;4981321;28;101700;-67
2021/05/24 05:37:16;;;;;;;6.00;5.40;;;;;;;17.08;71.19;101229.41;4980710;28;101719;-67
2021/05/24 05:39:42;;;;;;;5.38;4.97;;;;;;;17.08;70.99;101232.97;4981911;28;102126;-67
2021/05/24 05:42:09;;;;;;;5.82;5.40;;;;;;;17.08;71.49;101232.16;4980154;28;103769;-68
2021/05/24 05:44:36;;;;;;;5.88;5.38;;;;;;;17.08;71.37;101234.91;4981026;28;101765;-68
2021/05/24 05:47:02;;;;;;;6.10;5.63;;;;;;;17.08;71.23;101237.66;4979441;28;101823;-67
2021/05/24 05:49:30;;;;;;;5.40;5.00;;;;;;;17.09;70.94;101242.84;4981792;28;102080;-67
2021/05/24 05:51:56;;;;;;;5.97;5.38;;;;;;;17.09;71.24;101237.34;4979935;28;104057;-66
2021/05/24 05:54:23;;;;;;;6.30;5.80;;;;;;;17.10;71.14;101221.69;4978627;28;101560;-67
2021/05/24 05:56:49;;;;;;;6.18;5.68;;;;;;;17.14;70.85;101229.03;4980632;28;101555;-67
2021/05/24 05:59:19;;;;;;;5.65;5.15;;;;;;;17.16;70.76;101225.94;4964222;28;101771;-67
2021/05/24 06:01:45;;;;;;;6.93;5.70;;;;;;;17.19;70.77;101228.09;4980101;28;101555;-67
2021/05/24 06:04:12;;;;;;;5.78;5.32;;;;;;;17.20;70.40;101232.47;4980654;28;101653;-67
2021/05/24 06:06:39;;;;;;;6.20;5.00;;;;;;;17.19;70.41;101241.84;4980328;28;101605;-67
2021/05/24 06:09:06;;;;;;;6.53;5.93;;;;;;;17.18;69.81;101242.97;4981378;28;102137;-67
2021/05/24 06:11:32;;;;;;;7.65;5.78;;;;;;;17.19;70.21;101252.84;4979927;28;103512;-67
2021/05/24 06:13:59;;;;;;;5.30;4.90;;;;;;;17.19;70.19;101247.34;4980696;28;101795;-69
2021/05/24 06:16:25;;;;;;;6.07;5.57;;;;;;;17.18;70.03;101251.22;4980334;28;101610;-67
2021/05/24 06:18:52;;;;;;;5.60;5.20;;;;;;;17.19;69.96;101263.84;4985298;28;102258;-67
2021/05/24 06:21:18;;;;;;;6.20;5.70;;;;;;;17.18;69.77;101267.72;4987175;28;104164;-66
2021/05/24 06:23:46;;;;;;;6.35;5.75;;;;;;;17.21;69.69;101267.13;4988219;28;101724;-67
2021/05/24 06:26:13;;;;;;;5.38;4.88;;;;;;;17.22;70.17;101266.00;4988360;28;101844;-67
2021/05/24 06:28:39;;;;;;;6.18;5.05;;;;;;;17.24;70.12;101278.34;4989538;28;102136;-67
2021/05/24 06:31:06;;;;;;;5.88;5.38;;;;;;;17.26;69.54;101269.78;4986050;28;104076;-68
2021/05/24 06:33:32;;;;;;;5.47;4.90;;;;;;;17.29;69.72;101271.94;4985074;28;101773;-67
2021/05/24 06:35:59;;;;;;;5.38;4.90;;;;;;;17.32;69.13;101279.59;4983915;28;101886;-68
2021/05/24 06:38:25;;;;;;;4.18;3.88;;;;;;;17.39;68.97;101290.19;4967211;28;101882;-67
2021/05/24 06:40:53;;;;;;;4.47;4.18;;;;;;;17.43;68.97;101291.22;4983093;28;103952;-67
2021/05/24 06:43:22;;;;;;;4.70;4.40;;;;;;;17.47;69.03;101290.31;4982565;28;101728;-66
2021/05/24 06:45:48;;;;;;;4.70;4.30;;;;;;;17.51;68.80;101296.00;4983449;28;101702;-67
2021/05/24 06:48:15;;;;;;;5.18;4.60;;;;;;;17.54;68.82;101298.97;4984563;28;102220;-67
2021/05/24 06:50:41;;;;;;;4.45;4.15;;;;;;;17.58;69.06;101310.19;4982914;28;103948;-67
2021/05/24 06:53:08;;;;;;;4.50;4.10;;;;;;;17.60;68.75;101313.47;4983399;28;101769;-67
2021/05/24 06:55:34;;;;;;;4.80;4.50;;;;;;;17.62;69.00;101316.72;4983201;28;101789;-67
2021/05/24 06:58:02;;;;;;;4.45;4.15;;;;;;;17.64;69.01;101321.94;4984374;28;101977;-68
2021/05/24 07:00:29;;;;;;;4.57;4.20;;;;;;;17.63;68.86;101329.34;4982775;28;104361;-67
2021/05/24 07:02:55;;;;;;;4.50;4.20;;;;;;;17.64;69.22;101333.75;4983621;28;101583;-67
2021/05/24 07:05:22;;;;;;;4.60;4.15;;;;;;;17.65;68.91;101342.81;4983215;28;101741;-67
2021/05/24 07:07:48;;;;;;;4.15;3.85;;;;;;;17.65;69.42;101342.81;4984348;28;102100;-67
2021/05/24 07:10:15;;;;;;;4.07;3.78;;;;;;;17.65;69.02;101354.63;4982892;28;103904;-67
2021/05/24 07:12:41;;;;;;;4.75;4.35;;;;;;;17.66;69.23;101352.69;4983468;28;101653;-68
2021/05/24 07:15:09;;;;;;;4.13;3.72;;;;;;;17.66;68.68;101356.25;4983054;28;101738;-68
2021/05/24 07:17:36;;;;;;;4.13;3.83;;;;;;;17.68;69.10;101370.56;4984221;28;102133;-68
2021/05/24 07:20:06;;;;;;;3.87;3.57;;;;;;;17.69;69.17;101371.38;4982976;28;104025;-68
2021/05/24 07:22:33;;;;;;;4.27;3.87;;;;;;;17.70;68.59;101379.31;4983340;28;101764;-68
2021/05/24 07:24:59;;;;;;;3.55;3.25;;;;;;;17.69;68.94;101387.88;4982442;28;101807;-67
2021/05/24 07:27:26;;;;;;;3.90;3.60;;;;;;;17.70;68.84;101398.56;4966448;28;102255;-68
2021/05/24 07:29:52;;;;;;;3.92;3.63;;;;;;;17.71;68.80;101403.00;4981891;28;103842;-68
2021/05/24 07:32:20;;;;;;;3.63;3.33;;;;;;;17.72;68.73;101403.81;4981539;28;101750;-68
2021/05/24 07:34:46;;;;;;;4.57;4.00;;;;;;;17.74;68.59;101412.56;4982588;28;101666;-67
2021/05/24 07:37:14;;;;;;;4.55;4.15;;;;;;;17.72;68.69;101412.88;4983718;28;102366;-67
2021/05/24 07:39:41;;;;;;;4.20;3.90;;;;;;;17.74;68.87;101431.81;4982179;28;104181;-67
2021/05/24 07:42:09;;;;;;;4.25;3.95;;;;;;;17.74;69.04;101434.56;4982849;28;101790;-68
2021/05/24 07:44:36;;;;;;;4.03;3.72;;;;;;;17.76;68.65;101437.91;4982408;28;101906;-68
2021/05/24 07:47:03;;;;;;;3.85;3.55;;;;;;;17.76;68.30;101437.91;4983578;28;102110;-67
2021/05/24 07:49:31;;;;;;;4.03;3.72;;;;;;;17.76;68.63;101443.41;4980939;28;104108;-67
2021/05/24 07:51:57;;;;;;;3.95;3.47;;;;;;;17.75;68.24;101442.59;4982239;28;102070;-68
2021/05/24 07:54:24;;;;;;;3.80;3.50;;;;;;;17.75;68.71;101447.25;4981964;28;101650;-67
2021/05/24 07:56:51;;;;;;;3.75;3.50;;;;;;;17.75;68.52;101441.75;4983548;28;102235;-67
2021/05/24 07:59:18;;;;;;;4.13;3.72;;;;;;;17.74;68.81;101445.59;4964262;28;103929;-67
2021/05/24 08:01:44;;;;;;;3.97;3.67;;;;;;;17.74;68.29;101448.34;4965492;28;101634;-68
2021/05/24 08:04:11;;;;;;;4.22;3.92;;;;;;;17.75;68.45;101436.22;4982230;28;101627;-68
2021/05/24 08:06:38;;;;;;;3.75;3.45;;;;;;;17.74;68.34;101440.94;4983185;28;102204;-67
2021/05/24 08:09:06;;;;;;;3.65;3.45;;;;;;;17.74;68.48;101440.09;4981667;28;104011;-70
2021/05/24 08:11:34;;;;;;;3.30;3.10;;;;;;;17.75;68.42;101444.50;4982546;28;101575;-68
2021/05/24 08:14:00;;;;;;;3.60;3.40;;;;;;;17.76;68.75;101444.22;4982044;28;101569;-67
2021/05/24 08:16:27;;;;;;;3.28;3.08;;;;;;;17.76;68.17;101438.69;4982871;28;102267;-67
2021/05/24 08:18:54;;;;;;;4.07;3.70;;;;;;;17.76;68.35;101437.91;4981560;28;103960;-68
2021/05/24 08:21:20;;;;;;;3.90;3.60;;;;;;;17.76;68.08;101454.41;4982240;28;101807;-68
2021/05/24 08:23:48;;;;;;;3.70;3.50;;;;;;;17.77;68.34;101456.03;4981637;28;101671;-67
2021/05/24 08:26:15;;;;;;;3.80;3.50;;;;;;;17.77;68.33;101454.09;4982702;28;102088;-68
2021/05/24 08:28:42;;;;;;;3.70;3.50;;;;;;;17.76;68.64;101457.97;4981072;28;103887;-67
2021/05/24 08:31:09;;;;;;;3.38;3.17;;;;;;;17.77;68.61;101467.06;4981570;28;101700;-66
2021/05/24 08:33:36;;;;;;;3.45;3.20;;;;;;;17.76;68.60;101466.22;4981277;28;101814;-68
2021/05/24 08:36:03;;;;;;;3.65;3.35;;;;;;;17.77;68.32;101475.31;4982602;28;101968;-68
2021/05/24 08:38:31;;;;;;;3.53;3.17;;;;;;;17.78;68.11;101474.22;4981116;28;103907;-68
2021/05/24 08:41:06;;;;;;;3.88;3.58;;;;;;;17.81;68.03;101478.28;4981536;28;101824;-68
2021/05/24 08:43:33;;;;;;;3.78;3.53;;;;;;;17.81;67.88;101484.59;4977322;28;101743;-68
2021/05/24 08:46:00;;;;;;;3.53;3.30;;;;;;;17.84;68.19;101472.16;4982576;28;102161;-67
2021/05/24 08:48:27;;;;;;;3.10;2.90;;;;;;;17.82;68.20;101472.47;4980961;28;103836;-68
2021/05/24 08:50:54;;;;;;;3.28;3.08;;;;;;;17.82;68.27;101469.72;4981582;28;101796;-67
2021/05/24 08:53:20;;;;;;;4.03;3.72;;;;;;;17.83;67.77;101482.38;4980641;28;102056;-68
2021/05/24 08:55:48;;;;;;;3.63;3.42;;;;;;;17.82;68.15;101486.25;4965275;28;102086;-68
2021/05/24 08:58:15;;;;;;;3.63;3.42;;;;;;;17.83;67.63;101485.13;4981101;28;102689;-68
2021/05/24 09:00:42;;;;;;;3.67;3.38;;;;;;;17.82;68.12;101472.47;4981388;28;102054;-68
2021/05/24 09:03:16;;;;;;;3.45;3.20;;;;;;;17.84;67.58;101483.19;4981046;28;101838;-67
2021/05/24 09:05:44;;;;;;;3.47;3.17;;;;;;;17.88;67.74;101485.03;4981982;28;101926;-68
2021/05/24 09:08:10;;;;;;;3.17;2.88;;;;;;;17.89;67.87;101478.41;4980459;28;103879;-68
2021/05/24 09:10:41;;;;;;;3.30;3.00;;;;;;;17.92;67.79;101480.56;4981184;28;101768;-68
2021/05/24 09:13:09;;;;;;;3.08;2.78;;;;;;;17.93;67.74;101487.72;4980982;28;101629;-68
2021/05/24 09:15:39;;;;;;;3.25;3.05;;;;;;;17.92;67.49;101494.34;4982005;28;102248;-67
2021/05/24 09:18:09;;;;;;;3.60;3.33;;;;;;;17.92;67.77;101499.84;4979311;28;103978;-67
2021/05/24 09:20:39;;;;;;;3.60;3.35;;;;;;;17.92;67.72;101499.84;4981167;28;101717;-67
2021/05/24 09:23:08;;;;;;;2.63;2.42;;;;;;;17.91;67.84;101506.44;4980967;28;101816;-68
2021/05/24 09:26:04;;;;;;;3.50;3.30;;;;;;;17.90;67.64;101501.25;4982029;28;102206;-68
2021/05/24 09:28:40;;;;;;;3.38;3.17;;;;;;;17.87;67.44;101499.91;4980680;28;104021;-67
2021/05/24 09:31:13;;;;;;;3.33;3.10;;;;;;;17.88;67.73;101506.25;4981098;28;101831;-67
2021/05/24 09:33:42;;;;;;;3.60;3.30;;;;;;;17.86;67.38;101514.81;4980518;28;101706;-67
2021/05/24 09:36:09;;;;;;;3.10;2.90;;;;;;;17.85;67.47;101518.69;4980602;28;102243;-67
2021/05/24 09:38:38;;;;;;;3.92;3.63;;;;;;;17.85;67.54;101523.34;4980075;28;104019;-68
2021/05/24 09:41:06;;;;;;;3.17;2.97;;;;;;;17.83;67.44;101525.59;4979709;28;101729;-68
2021/05/24 09:43:45;;;;;;;3.40;3.20;;;;;;;17.82;67.81;101524.81;4964529;28;101939;-68
2021/05/24 09:46:19;;;;;;;3.38;3.17;;;;;;;17.81;68.06;101522.31;4981573;28;102077;-67
2021/05/24 09:48:48;;;;;;;3.15;2.95;;;;;;;17.81;67.89;101516.81;4979968;28;104116;-67
2021/05/24 09:51:16;;;;;;;;;;;;;;;17.81;67.88;101511.31;4980783;28;102077;-68
2021/05/24 09:53:55;;;;;;;3.42;3.22;;;;;;;17.80;67.82;101515.19;4981434;28;101812;-67
2021/05/24 09:56:21;;;;;;;3.47;3.28;;;;;;;17.79;67.59;101517.13;4985118;28;101822;-67
2021/05/24 09:59:07;;;;;;;3.20;3.00;;;;;;;17.79;67.91;101519.88;4983364;28;104133;-67
2021/05/24 10:01:42;;;;;;;3.30;3.10;;;;;;;17.77;67.55;101517.41;4984419;28;101709;-67
2021/05/24 10:04:11;;;;;;;3.45;3.25;;;;;;;17.77;67.54;101511.09;4983626;28;101555;-68
2021/05/24 10:06:38;;;;;;;3.13;2.92;;;;;;;17.77;67.84;101508.34;4984882;28;102101;-68
2021/05/24 10:09:07;;;;;;;3.53;3.13;;;;;;;17.76;67.81;101515.78;4983684;28;102683;-67
2021/05/24 10:11:36;;;;;;;3.60;3.30;;;;;;;17.75;67.98;101513.31;4984370;28;101630;-68
2021/05/24 10:14:03;;;;;;;2.72;2.63;;;;;;;17.75;67.91;101507.81;4983809;28;101689;-67
2021/05/24 10:16:36;;;;;;;4.65;3.40;;;;;;;17.75;67.70;101513.31;4984844;28;102190;-67
2021/05/24 10:19:08;;;;;;;3.78;3.47;;;;;;;17.74;67.87;101511.66;4983350;28;103901;-68
2021/05/24 10:21:34;;;;;;;4.13;3.35;;;;;;;17.71;68.27;101515.03;4983979;28;101623;-68
2021/05/24 10:24:01;;;;;;;4.05;2.03;;;;;;;18.26;65.40;101504.19;4983785;28;101742;-73
2021/05/24 10:26:29;;;;;;;11.05;2.22;;;;;;;18.51;63.52;101499.31;4984589;28;102235;-83
2021/05/24 10:28:57;;;;;;;118.03;10.10;;;;;;;18.52;63.46;101511.97;4983842;28;102759;-81
2021/05/24 10:31:27;;;;;;;102.43;8.13;;;;;;;18.62;62.03;101492.47;4983972;28;101742;-76
2021/05/24 10:33:54;;;;;;;52.17;6.25;;;;;;;18.76;60.39;101498.84;4983556;28;101808;-87
2021/05/24 10:36:32;;;;;;;68.38;6.60;;;;;;;18.70;59.96;101500.03;4984663;28;102097;-83
2021/05/24 10:39:21;;;;;;;58.65;5.07;;;;;;;18.88;59.77;101499.13;4983551;28;104365;-76
2021/05/24 10:41:57;;;;;;;30.20;3.25;;;;;;;19.03;58.83;101503.47;4985352;28;101748;-76
2021/05/24 10:44:25;;;;;;;24.42;2.75;;;;;;;19.06;59.85;101491.03;4987148;28;101672;-76
2021/05/24 10:46:53;;;;;;;14.20;2.53;;;;;;;19.16;58.81;101504.59;4988735;28;102208;-76
2021/05/24 10:49:22;;;;;;;20.13;3.08;;;;;;;19.14;59.28;101487.53;4988958;28;103369;-71
2021/05/24 10:52:10;;;;;;;10.70;1.77;;;;;;;19.02;59.93;101509.31;4987420;28;101849;-71
2021/05/24 10:54:41;;;;;;;8.90;1.33;;;;;;;19.06;59.50;101505.63;4987329;28;101677;-70
2021/05/24 10:57:15;;;;;;;30.95;3.45;;;;;;;18.93;60.66;101512.81;4985861;28;102071;-73
2021/05/24 10:59:55;;;;;;;16.17;1.63;;;;;;;19.14;59.15;101510.41;4983628;28;103863;-73
2021/05/24 11:02:38;;;;;;;9.27;1.40;;;;;;;19.08;59.59;101511.66;4983949;28;101775;-73
2021/05/24 11:05:31;;;;;;;10.80;1.25;;;;;;;19.16;59.46;101518.38;4982354;28;101724;-73
2021/05/24 11:08:00;;;;;;;10.95;1.75;;;;;;;19.01;60.49;101511.28;4984586;28;102103;-72
2021/05/24 11:10:43;;;;;;;10.45;1.38;;;;;;;18.84;60.46;101511.91;4983073;28;104005;-73
2021/05/24 11:13:25;;;;;;;4.60;1.02;;;;;;;18.83;60.16;101513.03;4983210;28;101710;-73
2021/05/24 11:15:52;;;;;;;8.43;1.20;;;;;;;18.78;60.23;101507.59;4983074;28;101548;-73
2021/05/24 11:18:24;;;;;;;3.83;1.02;;;;;;;18.77;60.11;101511.50;4984045;28;102077;-73
2021/05/24 11:21:02;;;;;;;3.38;1.38;;;;;;;18.81;59.49;101508.94;4979628;28;102767;-73
2021/05/24 11:23:59;;;;;;;5.25;1.30;;;;;;;18.81;59.80;101501.47;4983256;28;101800;-73
2021/05/24 11:26:34;;;;;;;4.88;1.15;;;;;;;18.82;59.91;101514.13;4981603;28;101689;-74